sensor_id;sensor_type;location;lat;lon;timestamp;temperature;humidity
8892;DHT22;4482;54.332;10.118;2023-01-26T00:00:00;-0.10;99.90
8892;DHT22;4482;54.332;10.118;2023-01-26T00:02:27;-0.10;99.90
8892;DHT22;4482;54.332;10.118;2023-01-26T00:04:54;-0.10;99.90
8892;DHT22;4482;54.332;10.118;2023-01-26T00:07:21;-0.10;99.90
8892;DHT22;4482;54.332;10.118;2023-01-26T00:09:48;-0.10;99.90
8892;DHT22;4482;54.332;10.118;2023-01-26T00:12:16;-0.20;99.90
8892;DHT22;4482;54.332;10.118;2023-01-26T00:14:42;-0.10;99.90
8892;DHT22;4482;54.332;10.118;2023-01-26T00:17:17;-0.10;99.90
8892;DHT22;4482;54.332;10.118;2023-01-26T00:19:54;-0.10;99.90
8892;DHT22;4482;54.332;10.118;2023-01-26T00:22:22;-0.10;99.90
8892;DHT22;4482;54.332;10.118;2023-01-26T00:24:49;-0.10;99.90
8892;DHT22;4482;54.332;10.118;2023-01-26T00:27:17;-0.10;99.90
8892;DHT22;4482;54.332;10.118;2023-01-26T00:29:44;-0.10;99.90
8892;DHT22;4482;54.332;10.118;2023-01-26T00:32:11;-0.10;99.90
8892;DHT22;4482;54.332;10.118;2023-01-26T00:34:38;-0.10;99.90
8892;DHT22;4482;54.332;10.118;2023-01-26T00:37:05;-0.10;99.90
8892;DHT22;4482;54.332;10.118;2023-01-26T00:39:32;-0.10;99.90
8892;DHT22;4482;54.332;10.118;2023-01-26T00:41:59;-0.10;99.90
8892;DHT22;4482;54.332;10.118;2023-01-26T00:44:36;-0.20;99.90
8892;DHT22;4482;54.332;10.118;2023-01-26T00:47:05;-0.10;99.90
8892;DHT22;4482;54.332;10.118;2023-01-26T00:49:33;-0.10;99.90
8892;DHT22;4482;54.332;10.118;2023-01-26T00:52:00;-0.10;99.90
8892;DHT22;4482;54.332;10.118;2023-01-26T00:54:27;-0.10;99.90
8892;DHT22;4482;54.332;10.118;2023-01-26T00:56:54;0.00;99.90
8892;DHT22;4482;54.332;10.118;2023-01-26T00:59:21;0.00;99.90
8892;DHT22;4482;54.332;10.118;2023-01-26T01:01:50;0.00;99.90
8892;DHT22;4482;54.332;10.118;2023-01-26T01:04:17;0.00;99.90
8892;DHT22;4482;54.332;10.118;2023-01-26T01:06:44;0.00;99.90
8892;DHT22;4482;54.332;10.118;2023-01-26T01:09:11;0.00;99.90
8892;DHT22;4482;54.332;10.118;2023-01-26T01:11:38;0.00;99.90
8892;DHT22;4482;54.332;10.118;2023-01-26T01:14:05;0.00;99.90
8892;DHT22;4482;54.332;10.118;2023-01-26T01:16:32;0.00;99.90
8892;DHT22;4482;54.332;10.118;2023-01-26T01:19:00;0.00;99.90
8892;DHT22;4482;54.332;10.118;2023-01-26T01:21:30;0.00;99.90
8892;DHT22;4482;54.332;10.118;2023-01-26T01:23:57;0.00;99.90
8892;DHT22;4482;54.332;10.118;2023-01-26T01:26:24;0.00;99.90
8892;DHT22;4482;54.332;10.118;2023-01-26T01:28:53;0.00;99.90
8892;DHT22;4482;54.332;10.118;2023-01-26T01:31:20;0.00;99.90
8892;DHT22;4482;54.332;10.118;2023-01-26T01:33:47;0.00;99.90
8892;DHT22;4482;54.332;10.118;2023-01-26T01:36:16;0.00;99.90
8892;DHT22;4482;54.332;10.118;2023-01-26T01:38:44;0.00;99.90
8892;DHT22;4482;54.332;10.118;2023-01-26T01:41:11;0.00;99.90
8892;DHT22;4482;54.332;10.118;2023-01-26T01:43:38;0.00;99.90
8892;DHT22;4482;54.332;10.118;2023-01-26T01:46:09;0.00;99.90
8892;DHT22;4482;54.332;10.118;2023-01-26T01:48:44;0.10;99.90
8892;DHT22;4482;54.332;10.118;2023-01-26T01:51:16;0.10;99.90
8892;DHT22;4482;54.332;10.118;2023-01-26T01:53:47;0.10;99.90
8892;DHT22;4482;54.332;10.118;2023-01-26T01:56:17;0.10;99.90
8892;DHT22;4482;54.332;10.118;2023-01-26T01:58:48;0.20;99.90
8892;DHT22;4482;54.332;10.118;2023-01-26T02:01:16;0.10;99.90
8892;DHT22;4482;54.332;10.118;2023-01-26T02:03:44;0.10;99.90
8892;DHT22;4482;54.332;10.118;2023-01-26T02:06:15;0.10;99.90
8892;DHT22;4482;54.332;10.118;2023-01-26T02:08:45;0.10;99.90
8892;DHT22;4482;54.332;10.118;2023-01-26T02:11:15;0.10;99.90
8892;DHT22;4482;54.332;10.118;2023-01-26T02:13:46;0.10;99.90
8892;DHT22;4482;54.332;10.118;2023-01-26T02:16:13;0.20;99.90
8892;DHT22;4482;54.332;10.118;2023-01-26T02:18:41;0.20;99.90
8892;DHT22;4482;54.332;10.118;2023-01-26T02:21:10;0.20;99.90
8892;DHT22;4482;54.332;10.118;2023-01-26T02:23:48;0.20;99.90
8892;DHT22;4482;54.332;10.118;2023-01-26T02:26:19;0.20;99.90
8892;DHT22;4482;54.332;10.118;2023-01-26T02:28:46;0.10;99.90
8892;DHT22;4482;54.332;10.118;2023-01-26T02:31:14;0.20;99.90
8892;DHT22;4482;54.332;10.118;2023-01-26T02:33:42;0.20;99.90
8892;DHT22;4482;54.332;10.118;2023-01-26T02:36:16;0.20;99.90
8892;DHT22;4482;54.332;10.118;2023-01-26T02:38:48;0.20;99.90
8892;DHT22;4482;54.332;10.118;2023-01-26T02:41:18;0.60;99.90
8892;DHT22;4482;54.332;10.118;2023-01-26T02:43:58;0.70;99.90
8892;DHT22;4482;54.332;10.118;2023-01-26T02:46:25;0.50;99.90
8892;DHT22;4482;54.332;10.118;2023-01-26T02:48:52;0.40;99.90
8892;DHT22;4482;54.332;10.118;2023-01-26T02:51:36;0.40;99.90
8892;DHT22;4482;54.332;10.118;2023-01-26T02:54:05;0.40;99.90
8892;DHT22;4482;54.332;10.118;2023-01-26T02:56:33;0.40;99.90
8892;DHT22;4482;54.332;10.118;2023-01-26T02:59:04;0.40;99.90
8892;DHT22;4482;54.332;10.118;2023-01-26T03:01:31;0.40;99.90
8892;DHT22;4482;54.332;10.118;2023-01-26T03:03:58;0.40;99.90
8892;DHT22;4482;54.332;10.118;2023-01-26T03:06:24;0.40;99.90
8892;DHT22;4482;54.332;10.118;2023-01-26T03:08:51;0.30;99.90
8892;DHT22;4482;54.332;10.118;2023-01-26T03:11:18;0.40;99.90
8892;DHT22;4482;54.332;10.118;2023-01-26T03:13:46;0.40;99.90
8892;DHT22;4482;54.332;10.118;2023-01-26T03:16:13;0.30;99.90
8892;DHT22;4482;54.332;10.118;2023-01-26T03:18:43;0.30;99.90
8892;DHT22;4482;54.332;10.118;2023-01-26T03:21:27;0.40;99.90
8892;DHT22;4482;54.332;10.118;2023-01-26T03:24:11;0.40;99.90
8892;DHT22;4482;54.332;10.118;2023-01-26T03:26:56;0.40;99.90
8892;DHT22;4482;54.332;10.118;2023-01-26T03:29:41;0.40;99.90
8892;DHT22;4482;54.332;10.118;2023-01-26T03:32:08;0.40;99.90
8892;DHT22;4482;54.332;10.118;2023-01-26T03:34:35;0.40;99.90
8892;DHT22;4482;54.332;10.118;2023-01-26T03:37:03;0.40;99.90
8892;DHT22;4482;54.332;10.118;2023-01-26T03:39:30;0.40;99.90
8892;DHT22;4482;54.332;10.118;2023-01-26T03:42:14;0.40;99.90
8892;DHT22;4482;54.332;10.118;2023-01-26T03:44:59;0.40;99.90
8892;DHT22;4482;54.332;10.118;2023-01-26T03:47:44;0.40;99.90
8892;DHT22;4482;54.332;10.118;2023-01-26T03:50:28;0.40;99.90
8892;DHT22;4482;54.332;10.118;2023-01-26T03:53:13;0.40;99.90
8892;DHT22;4482;54.332;10.118;2023-01-26T03:55:57;0.30;99.90
8892;DHT22;4482;54.332;10.118;2023-01-26T03:58:46;0.40;99.90
8892;DHT22;4482;54.332;10.118;2023-01-26T04:01:15;0.40;99.90
8892;DHT22;4482;54.332;10.118;2023-01-26T04:03:45;0.40;99.90
8892;DHT22;4482;54.332;10.118;2023-01-26T04:06:29;0.40;99.90
8892;DHT22;4482;54.332;10.118;2023-01-26T04:09:13;0.40;99.90
8892;DHT22;4482;54.332;10.118;2023-01-26T04:11:40;0.40;99.90
8892;DHT22;4482;54.332;10.118;2023-01-26T04:14:09;0.40;99.90
8892;DHT22;4482;54.332;10.118;2023-01-26T04:16:55;0.40;99.90
8892;DHT22;4482;54.332;10.118;2023-01-26T04:19:40;0.50;99.90
8892;DHT22;4482;54.332;10.118;2023-01-26T04:22:24;0.50;99.90
8892;DHT22;4482;54.332;10.118;2023-01-26T04:24:51;0.40;99.90
8892;DHT22;4482;54.332;10.118;2023-01-26T04:27:18;0.50;99.90
8892;DHT22;4482;54.332;10.118;2023-01-26T04:29:45;0.50;99.90
8892;DHT22;4482;54.332;10.118;2023-01-26T04:32:13;0.50;99.90
8892;DHT22;4482;54.332;10.118;2023-01-26T04:34:40;0.50;99.90
8892;DHT22;4482;54.332;10.118;2023-01-26T04:37:08;0.50;99.90
8892;DHT22;4482;54.332;10.118;2023-01-26T04:39:34;0.50;99.90
8892;DHT22;4482;54.332;10.118;2023-01-26T04:42:01;0.50;99.90
8892;DHT22;4482;54.332;10.118;2023-01-26T04:44:28;0.50;99.90
8892;DHT22;4482;54.332;10.118;2023-01-26T04:46:55;0.50;99.90
8892;DHT22;4482;54.332;10.118;2023-01-26T04:49:23;0.50;99.90
8892;DHT22;4482;54.332;10.118;2023-01-26T04:51:50;0.50;99.90
8892;DHT22;4482;54.332;10.118;2023-01-26T04:54:17;0.50;99.90
8892;DHT22;4482;54.332;10.118;2023-01-26T04:56:44;0.50;99.90
8892;DHT22;4482;54.332;10.118;2023-01-26T04:59:11;0.60;99.90
8892;DHT22;4482;54.332;10.118;2023-01-26T05:01:39;0.60;99.90
8892;DHT22;4482;54.332;10.118;2023-01-26T05:04:06;0.60;99.90
8892;DHT22;4482;54.332;10.118;2023-01-26T05:06:35;0.60;99.90
8892;DHT22;4482;54.332;10.118;2023-01-26T05:09:03;0.60;99.90
8892;DHT22;4482;54.332;10.118;2023-01-26T05:11:30;0.60;99.90
8892;DHT22;4482;54.332;10.118;2023-01-26T05:13:57;0.60;99.90
8892;DHT22;4482;54.332;10.118;2023-01-26T05:16:24;0.60;99.90
8892;DHT22;4482;54.332;10.118;2023-01-26T05:18:52;0.60;99.90
8892;DHT22;4482;54.332;10.118;2023-01-26T05:21:19;0.70;99.90
8892;DHT22;4482;54.332;10.118;2023-01-26T05:23:50;0.80;99.90
8892;DHT22;4482;54.332;10.118;2023-01-26T05:26:17;1.20;99.90
8892;DHT22;4482;54.332;10.118;2023-01-26T05:28:44;1.10;99.90
8892;DHT22;4482;54.332;10.118;2023-01-26T05:31:11;1.00;99.90
8892;DHT22;4482;54.332;10.118;2023-01-26T05:33:38;0.90;99.90
8892;DHT22;4482;54.332;10.118;2023-01-26T05:36:06;0.80;99.90
8892;DHT22;4482;54.332;10.118;2023-01-26T05:38:33;0.80;99.90
8892;DHT22;4482;54.332;10.118;2023-01-26T05:41:02;0.80;99.90
8892;DHT22;4482;54.332;10.118;2023-01-26T05:43:28;0.80;99.90
8892;DHT22;4482;54.332;10.118;2023-01-26T05:45:56;0.80;99.90
8892;DHT22;4482;54.332;10.118;2023-01-26T05:48:23;0.80;99.90
8892;DHT22;4482;54.332;10.118;2023-01-26T05:50:50;0.80;99.90
8892;DHT22;4482;54.332;10.118;2023-01-26T05:53:16;0.90;99.90
8892;DHT22;4482;54.332;10.118;2023-01-26T05:55:44;0.90;99.90
8892;DHT22;4482;54.332;10.118;2023-01-26T05:58:12;0.90;99.90
8892;DHT22;4482;54.332;10.118;2023-01-26T06:00:39;0.90;99.90
8892;DHT22;4482;54.332;10.118;2023-01-26T06:03:06;0.90;99.90
8892;DHT22;4482;54.332;10.118;2023-01-26T06:05:32;0.90;99.90
8892;DHT22;4482;54.332;10.118;2023-01-26T06:07:59;0.90;99.90
8892;DHT22;4482;54.332;10.118;2023-01-26T06:10:26;0.90;99.90
8892;DHT22;4482;54.332;10.118;2023-01-26T06:12:53;0.90;99.90
8892;DHT22;4482;54.332;10.118;2023-01-26T06:15:21;0.90;99.90
8892;DHT22;4482;54.332;10.118;2023-01-26T06:17:48;0.90;99.90
8892;DHT22;4482;54.332;10.118;2023-01-26T06:20:15;0.90;99.90
8892;DHT22;4482;54.332;10.118;2023-01-26T06:22:42;0.90;99.90
8892;DHT22;4482;54.332;10.118;2023-01-26T06:25:09;0.90;99.90
8892;DHT22;4482;54.332;10.118;2023-01-26T06:27:36;0.90;99.90
8892;DHT22;4482;54.332;10.118;2023-01-26T06:30:07;0.90;99.90
8892;DHT22;4482;54.332;10.118;2023-01-26T06:32:36;1.00;99.90
8892;DHT22;4482;54.332;10.118;2023-01-26T06:35:04;1.30;99.90
8892;DHT22;4482;54.332;10.118;2023-01-26T06:37:33;1.40;99.90
8892;DHT22;4482;54.332;10.118;2023-01-26T06:40:00;1.30;99.90
8892;DHT22;4482;54.332;10.118;2023-01-26T06:42:27;1.20;99.90
8892;DHT22;4482;54.332;10.118;2023-01-26T06:44:54;1.10;99.90
8892;DHT22;4482;54.332;10.118;2023-01-26T06:47:23;1.10;99.90
8892;DHT22;4482;54.332;10.118;2023-01-26T06:49:51;1.10;99.90
8892;DHT22;4482;54.332;10.118;2023-01-26T06:52:22;1.10;99.90
8892;DHT22;4482;54.332;10.118;2023-01-26T06:54:53;1.00;99.90
8892;DHT22;4482;54.332;10.118;2023-01-26T06:57:19;1.00;99.90
8892;DHT22;4482;54.332;10.118;2023-01-26T06:59:46;1.00;99.90
8892;DHT22;4482;54.332;10.118;2023-01-26T07:02:16;1.00;99.90
8892;DHT22;4482;54.332;10.118;2023-01-26T07:04:44;1.00;99.90
8892;DHT22;4482;54.332;10.118;2023-01-26T07:07:12;1.00;99.90
8892;DHT22;4482;54.332;10.118;2023-01-26T07:09:39;1.70;99.90
8892;DHT22;4482;54.332;10.118;2023-01-26T07:12:07;1.50;99.90
8892;DHT22;4482;54.332;10.118;2023-01-26T07:14:34;1.30;99.90
8892;DHT22;4482;54.332;10.118;2023-01-26T07:17:00;1.30;99.90
8892;DHT22;4482;54.332;10.118;2023-01-26T07:19:28;1.30;99.90
8892;DHT22;4482;54.332;10.118;2023-01-26T07:21:57;1.20;99.90
8892;DHT22;4482;54.332;10.118;2023-01-26T07:24:26;1.50;99.90
8892;DHT22;4482;54.332;10.118;2023-01-26T07:26:53;1.60;99.90
8892;DHT22;4482;54.332;10.118;2023-01-26T07:29:20;1.50;99.90
8892;DHT22;4482;54.332;10.118;2023-01-26T07:31:47;1.40;99.90
8892;DHT22;4482;54.332;10.118;2023-01-26T07:34:13;1.30;99.90
8892;DHT22;4482;54.332;10.118;2023-01-26T07:36:40;1.30;99.90
8892;DHT22;4482;54.332;10.118;2023-01-26T07:39:07;1.30;99.90
8892;DHT22;4482;54.332;10.118;2023-01-26T07:41:35;1.30;99.90
8892;DHT22;4482;54.332;10.118;2023-01-26T07:44:02;1.30;99.90
8892;DHT22;4482;54.332;10.118;2023-01-26T07:46:32;1.30;99.90
8892;DHT22;4482;54.332;10.118;2023-01-26T07:48:59;1.30;99.90
8892;DHT22;4482;54.332;10.118;2023-01-26T07:51:26;1.30;99.90
8892;DHT22;4482;54.332;10.118;2023-01-26T07:53:53;1.40;99.90
8892;DHT22;4482;54.332;10.118;2023-01-26T07:56:20;1.30;99.90
8892;DHT22;4482;54.332;10.118;2023-01-26T07:58:52;1.40;99.90
8892;DHT22;4482;54.332;10.118;2023-01-26T08:01:19;1.40;99.90
8892;DHT22;4482;54.332;10.118;2023-01-26T08:03:49;1.40;99.90
8892;DHT22;4482;54.332;10.118;2023-01-26T08:06:16;1.40;99.90
8892;DHT22;4482;54.332;10.118;2023-01-26T08:08:43;1.30;99.90
8892;DHT22;4482;54.332;10.118;2023-01-26T08:11:11;1.30;99.90
8892;DHT22;4482;54.332;10.118;2023-01-26T08:13:38;1.40;99.90
8892;DHT22;4482;54.332;10.118;2023-01-26T08:16:08;1.40;99.90
8892;DHT22;4482;54.332;10.118;2023-01-26T08:18:36;1.40;99.90
8892;DHT22;4482;54.332;10.118;2023-01-26T08:21:04;1.40;99.90
8892;DHT22;4482;54.332;10.118;2023-01-26T08:23:31;1.40;99.90
8892;DHT22;4482;54.332;10.118;2023-01-26T08:26:00;1.40;99.90
8892;DHT22;4482;54.332;10.118;2023-01-26T08:28:26;1.50;99.90
8892;DHT22;4482;54.332;10.118;2023-01-26T08:30:53;1.50;99.90
8892;DHT22;4482;54.332;10.118;2023-01-26T08:33:22;1.50;99.90
8892;DHT22;4482;54.332;10.118;2023-01-26T08:35:49;1.50;99.90
8892;DHT22;4482;54.332;10.118;2023-01-26T08:38:16;1.50;99.90
8892;DHT22;4482;54.332;10.118;2023-01-26T08:40:43;1.50;99.90
8892;DHT22;4482;54.332;10.118;2023-01-26T08:43:09;1.60;99.90
8892;DHT22;4482;54.332;10.118;2023-01-26T08:45:36;1.60;99.90
8892;DHT22;4482;54.332;10.118;2023-01-26T08:48:04;1.60;99.90
8892;DHT22;4482;54.332;10.118;2023-01-26T08:50:32;1.60;99.90
8892;DHT22;4482;54.332;10.118;2023-01-26T08:52:59;1.60;99.90
8892;DHT22;4482;54.332;10.118;2023-01-26T08:55:26;1.60;99.90
8892;DHT22;4482;54.332;10.118;2023-01-26T08:57:57;1.60;99.90
8892;DHT22;4482;54.332;10.118;2023-01-26T09:00:25;1.70;99.90
8892;DHT22;4482;54.332;10.118;2023-01-26T09:02:57;1.70;99.90
8892;DHT22;4482;54.332;10.118;2023-01-26T09:05:25;1.70;99.90
8892;DHT22;4482;54.332;10.118;2023-01-26T09:07:54;1.70;99.90
8892;DHT22;4482;54.332;10.118;2023-01-26T09:10:20;1.60;99.90
8892;DHT22;4482;54.332;10.118;2023-01-26T09:12:47;1.60;99.90
8892;DHT22;4482;54.332;10.118;2023-01-26T09:15:14;1.60;99.90
8892;DHT22;4482;54.332;10.118;2023-01-26T09:17:41;1.70;99.90
8892;DHT22;4482;54.332;10.118;2023-01-26T09:20:09;1.70;99.90
8892;DHT22;4482;54.332;10.118;2023-01-26T09:22:36;1.70;99.90
8892;DHT22;4482;54.332;10.118;2023-01-26T09:25:05;1.70;99.90
8892;DHT22;4482;54.332;10.118;2023-01-26T09:27:33;1.70;99.90
8892;DHT22;4482;54.332;10.118;2023-01-26T09:29:59;1.70;99.90
8892;DHT22;4482;54.332;10.118;2023-01-26T09:32:26;1.70;99.90
8892;DHT22;4482;54.332;10.118;2023-01-26T09:34:54;1.80;99.90
8892;DHT22;4482;54.332;10.118;2023-01-26T09:37:21;1.80;99.90
8892;DHT22;4482;54.332;10.118;2023-01-26T09:39:48;1.80;99.90
8892;DHT22;4482;54.332;10.118;2023-01-26T09:42:38;1.90;99.90
8892;DHT22;4482;54.332;10.118;2023-01-26T09:45:17;2.00;99.90
8892;DHT22;4482;54.332;10.118;2023-01-26T09:47:55;2.10;99.90
8892;DHT22;4482;54.332;10.118;2023-01-26T09:50:27;2.10;99.90
8892;DHT22;4482;54.332;10.118;2023-01-26T09:52:58;2.20;99.90
8892;DHT22;4482;54.332;10.118;2023-01-26T09:55:26;2.20;99.90
8892;DHT22;4482;54.332;10.118;2023-01-26T09:57:58;2.20;99.90
8892;DHT22;4482;54.332;10.118;2023-01-26T10:00:29;2.20;99.90
8892;DHT22;4482;54.332;10.118;2023-01-26T10:03:09;2.30;99.90
8892;DHT22;4482;54.332;10.118;2023-01-26T10:05:42;2.40;99.90
8892;DHT22;4482;54.332;10.118;2023-01-26T10:08:12;2.30;99.90
8892;DHT22;4482;54.332;10.118;2023-01-26T10:10:44;2.40;99.90
8892;DHT22;4482;54.332;10.118;2023-01-26T10:13:14;2.40;99.90
8892;DHT22;4482;54.332;10.118;2023-01-26T10:15:47;2.40;99.90
8892;DHT22;4482;54.332;10.118;2023-01-26T10:18:18;2.60;99.90
8892;DHT22;4482;54.332;10.118;2023-01-26T10:20:49;2.50;99.90
8892;DHT22;4482;54.332;10.118;2023-01-26T10:23:20;2.60;99.90
8892;DHT22;4482;54.332;10.118;2023-01-26T10:25:48;2.60;99.90
8892;DHT22;4482;54.332;10.118;2023-01-26T10:28:19;2.60;99.90
8892;DHT22;4482;54.332;10.118;2023-01-26T10:30:48;2.70;99.90
8892;DHT22;4482;54.332;10.118;2023-01-26T10:33:18;2.70;99.90
8892;DHT22;4482;54.332;10.118;2023-01-26T10:35:47;2.70;99.90
8892;DHT22;4482;54.332;10.118;2023-01-26T10:38:39;2.70;99.90
8892;DHT22;4482;54.332;10.118;2023-01-26T10:41:19;2.80;99.90
8892;DHT22;4482;54.332;10.118;2023-01-26T10:43:52;2.90;99.90
8892;DHT22;4482;54.332;10.118;2023-01-26T10:46:27;2.90;99.90
8892;DHT22;4482;54.332;10.118;2023-01-26T10:48:58;3.00;99.90
8892;DHT22;4482;54.332;10.118;2023-01-26T10:51:28;3.00;99.90
8892;DHT22;4482;54.332;10.118;2023-01-26T10:54:19;2.90;99.90
8892;DHT22;4482;54.332;10.118;2023-01-26T10:56:49;2.90;99.90
8892;DHT22;4482;54.332;10.118;2023-01-26T10:59:26;2.80;99.90
8892;DHT22;4482;54.332;10.118;2023-01-26T11:01:55;2.80;99.90
8892;DHT22;4482;54.332;10.118;2023-01-26T11:04:23;2.80;99.90
8892;DHT22;4482;54.332;10.118;2023-01-26T11:06:51;2.80;99.90
8892;DHT22;4482;54.332;10.118;2023-01-26T11:09:20;2.80;99.90
8892;DHT22;4482;54.332;10.118;2023-01-26T11:12:00;2.80;99.90
8892;DHT22;4482;54.332;10.118;2023-01-26T11:14:30;2.90;99.90
8892;DHT22;4482;54.332;10.118;2023-01-26T11:17:07;3.00;99.90
8892;DHT22;4482;54.332;10.118;2023-01-26T11:19:56;3.00;99.90
8892;DHT22;4482;54.332;10.118;2023-01-26T11:22:30;3.10;99.90
8892;DHT22;4482;54.332;10.118;2023-01-26T11:25:06;3.20;99.90
8892;DHT22;4482;54.332;10.118;2023-01-26T11:27:41;3.20;99.90
8892;DHT22;4482;54.332;10.118;2023-01-26T11:30:38;3.30;99.90
8892;DHT22;4482;54.332;10.118;2023-01-26T11:33:15;3.40;99.90
8892;DHT22;4482;54.332;10.118;2023-01-26T11:35:51;3.50;99.90
8892;DHT22;4482;54.332;10.118;2023-01-26T11:38:30;3.70;99.90
8892;DHT22;4482;54.332;10.118;2023-01-26T11:41:10;3.80;99.90
8892;DHT22;4482;54.332;10.118;2023-01-26T11:44:07;3.80;99.90
8892;DHT22;4482;54.332;10.118;2023-01-26T11:46:56;3.90;99.90
8892;DHT22;4482;54.332;10.118;2023-01-26T11:49:46;3.90;99.90
8892;DHT22;4482;54.332;10.118;2023-01-26T11:52:26;3.90;99.90
8892;DHT22;4482;54.332;10.118;2023-01-26T11:55:12;4.00;99.90
8892;DHT22;4482;54.332;10.118;2023-01-26T11:57:45;4.00;99.90
8892;DHT22;4482;54.332;10.118;2023-01-26T12:00:19;4.10;99.90
8892;DHT22;4482;54.332;10.118;2023-01-26T12:02:55;4.10;99.90
8892;DHT22;4482;54.332;10.118;2023-01-26T12:05:27;4.20;99.90
8892;DHT22;4482;54.332;10.118;2023-01-26T12:07:58;4.20;99.90
8892;DHT22;4482;54.332;10.118;2023-01-26T12:10:31;4.20;99.90
8892;DHT22;4482;54.332;10.118;2023-01-26T12:13:04;4.20;99.90
8892;DHT22;4482;54.332;10.118;2023-01-26T12:15:36;4.30;99.90
8892;DHT22;4482;54.332;10.118;2023-01-26T12:18:11;4.40;99.90
8892;DHT22;4482;54.332;10.118;2023-01-26T12:20:42;4.40;99.90
8892;DHT22;4482;54.332;10.118;2023-01-26T12:23:23;4.50;99.90
8892;DHT22;4482;54.332;10.118;2023-01-26T12:25:55;4.50;99.90
8892;DHT22;4482;54.332;10.118;2023-01-26T12:28:26;4.50;99.90
8892;DHT22;4482;54.332;10.118;2023-01-26T12:30:59;4.50;99.90
8892;DHT22;4482;54.332;10.118;2023-01-26T12:33:30;4.50;99.90
8892;DHT22;4482;54.332;10.118;2023-01-26T12:36:26;4.50;99.90
8892;DHT22;4482;54.332;10.118;2023-01-26T12:39:10;4.50;99.90
8892;DHT22;4482;54.332;10.118;2023-01-26T12:41:49;4.50;99.90
8892;DHT22;4482;54.332;10.118;2023-01-26T12:44:28;4.50;99.90
8892;DHT22;4482;54.332;10.118;2023-01-26T12:47:00;4.50;99.90
8892;DHT22;4482;54.332;10.118;2023-01-26T12:49:35;4.60;99.90
8892;DHT22;4482;54.332;10.118;2023-01-26T12:52:09;4.60;99.90
8892;DHT22;4482;54.332;10.118;2023-01-26T12:54:43;4.60;99.90
8892;DHT22;4482;54.332;10.118;2023-01-26T12:57:13;4.50;99.90
8892;DHT22;4482;54.332;10.118;2023-01-26T12:59:41;4.50;99.90
8892;DHT22;4482;54.332;10.118;2023-01-26T13:02:17;4.50;99.90
8892;DHT22;4482;54.332;10.118;2023-01-26T13:04:48;4.60;99.90
8892;DHT22;4482;54.332;10.118;2023-01-26T13:07:30;4.60;99.90
8892;DHT22;4482;54.332;10.118;2023-01-26T13:10:18;4.60;99.90
8892;DHT22;4482;54.332;10.118;2023-01-26T13:12:48;4.60;99.90
8892;DHT22;4482;54.332;10.118;2023-01-26T13:15:16;4.70;99.90
8892;DHT22;4482;54.332;10.118;2023-01-26T13:17:52;4.60;99.90
8892;DHT22;4482;54.332;10.118;2023-01-26T13:20:40;4.70;99.90
8892;DHT22;4482;54.332;10.118;2023-01-26T13:26:18;4.70;99.90
8892;DHT22;4482;54.332;10.118;2023-01-26T13:28:46;4.60;99.90
8892;DHT22;4482;54.332;10.118;2023-01-26T13:31:28;4.60;99.90
8892;DHT22;4482;54.332;10.118;2023-01-26T13:33:58;4.60;99.90
8892;DHT22;4482;54.332;10.118;2023-01-26T13:36:32;4.60;99.90
8892;DHT22;4482;54.332;10.118;2023-01-26T13:39:03;4.60;99.90
8892;DHT22;4482;54.332;10.118;2023-01-26T13:41:31;4.60;99.90
8892;DHT22;4482;54.332;10.118;2023-01-26T13:44:07;4.60;99.90
8892;DHT22;4482;54.332;10.118;2023-01-26T13:46:38;4.60;99.90
8892;DHT22;4482;54.332;10.118;2023-01-26T13:49:22;4.60;99.90
8892;DHT22;4482;54.332;10.118;2023-01-26T13:51:51;4.60;99.90
8892;DHT22;4482;54.332;10.118;2023-01-26T13:54:18;4.70;99.90
8892;DHT22;4482;54.332;10.118;2023-01-26T13:57:00;4.60;99.90
8892;DHT22;4482;54.332;10.118;2023-01-26T13:59:27;4.70;99.90
8892;DHT22;4482;54.332;10.118;2023-01-26T14:01:55;4.70;99.90
8892;DHT22;4482;54.332;10.118;2023-01-26T14:04:23;4.70;99.90
8892;DHT22;4482;54.332;10.118;2023-01-26T14:06:55;4.70;99.90
8892;DHT22;4482;54.332;10.118;2023-01-26T14:09:22;4.70;99.90
8892;DHT22;4482;54.332;10.118;2023-01-26T14:11:56;4.70;99.90
8892;DHT22;4482;54.332;10.118;2023-01-26T14:14:26;4.60;99.90
8892;DHT22;4482;54.332;10.118;2023-01-26T14:16:55;4.60;99.90
8892;DHT22;4482;54.332;10.118;2023-01-26T14:19:23;4.60;99.90
8892;DHT22;4482;54.332;10.118;2023-01-26T14:21:54;4.60;99.90
8892;DHT22;4482;54.332;10.118;2023-01-26T14:24:26;4.50;99.90
8892;DHT22;4482;54.332;10.118;2023-01-26T14:26:56;4.50;99.90
8892;DHT22;4482;54.332;10.118;2023-01-26T14:29:26;4.50;99.90
8892;DHT22;4482;54.332;10.118;2023-01-26T14:31:55;4.50;99.90
8892;DHT22;4482;54.332;10.118;2023-01-26T14:34:24;4.50;99.90
8892;DHT22;4482;54.332;10.118;2023-01-26T14:37:06;4.50;99.90
8892;DHT22;4482;54.332;10.118;2023-01-26T14:39:33;4.50;99.90
8892;DHT22;4482;54.332;10.118;2023-01-26T14:42:00;4.50;99.90
8892;DHT22;4482;54.332;10.118;2023-01-26T14:44:28;4.40;99.90
8892;DHT22;4482;54.332;10.118;2023-01-26T14:46:59;4.40;99.90
8892;DHT22;4482;54.332;10.118;2023-01-26T14:49:38;4.40;99.90
8892;DHT22;4482;54.332;10.118;2023-01-26T14:52:17;4.40;99.90
8892;DHT22;4482;54.332;10.118;2023-01-26T14:54:45;4.40;99.90
8892;DHT22;4482;54.332;10.118;2023-01-26T14:57:18;4.40;99.90
8892;DHT22;4482;54.332;10.118;2023-01-26T14:59:48;4.40;99.90
8892;DHT22;4482;54.332;10.118;2023-01-26T15:02:18;4.40;99.90
8892;DHT22;4482;54.332;10.118;2023-01-26T15:04:48;4.40;99.90
8892;DHT22;4482;54.332;10.118;2023-01-26T15:07:32;4.40;99.90
8892;DHT22;4482;54.332;10.118;2023-01-26T15:10:00;4.40;99.90
8892;DHT22;4482;54.332;10.118;2023-01-26T15:12:31;4.40;99.90
8892;DHT22;4482;54.332;10.118;2023-01-26T15:14:59;4.40;99.90
8892;DHT22;4482;54.332;10.118;2023-01-26T15:17:30;4.40;99.90
8892;DHT22;4482;54.332;10.118;2023-01-26T15:20:01;4.40;99.90
8892;DHT22;4482;54.332;10.118;2023-01-26T15:22:29;4.30;99.90
8892;DHT22;4482;54.332;10.118;2023-01-26T15:25:04;4.30;99.90
8892;DHT22;4482;54.332;10.118;2023-01-26T15:27:35;4.30;99.90
8892;DHT22;4482;54.332;10.118;2023-01-26T15:30:03;4.30;99.90
8892;DHT22;4482;54.332;10.118;2023-01-26T15:32:37;4.20;99.90
8892;DHT22;4482;54.332;10.118;2023-01-26T15:35:20;4.20;99.90
8892;DHT22;4482;54.332;10.118;2023-01-26T15:37:47;4.20;99.90
8892;DHT22;4482;54.332;10.118;2023-01-26T15:40:16;4.30;99.90
8892;DHT22;4482;54.332;10.118;2023-01-26T15:42:43;4.30;99.90
8892;DHT22;4482;54.332;10.118;2023-01-26T15:45:21;4.20;99.90
8892;DHT22;4482;54.332;10.118;2023-01-26T15:47:49;4.30;99.90
8892;DHT22;4482;54.332;10.118;2023-01-26T15:50:16;4.30;99.90
8892;DHT22;4482;54.332;10.118;2023-01-26T15:52:43;4.30;99.90
8892;DHT22;4482;54.332;10.118;2023-01-26T15:55:19;4.20;99.90
8892;DHT22;4482;54.332;10.118;2023-01-26T15:57:47;4.30;99.90
8892;DHT22;4482;54.332;10.118;2023-01-26T16:00:14;4.30;99.90
8892;DHT22;4482;54.332;10.118;2023-01-26T16:02:42;4.30;99.90
8892;DHT22;4482;54.332;10.118;2023-01-26T16:05:13;4.30;99.90
8892;DHT22;4482;54.332;10.118;2023-01-26T16:07:40;4.30;99.90
8892;DHT22;4482;54.332;10.118;2023-01-26T16:10:07;4.30;99.90
8892;DHT22;4482;54.332;10.118;2023-01-26T16:12:36;4.20;99.90
8892;DHT22;4482;54.332;10.118;2023-01-26T16:15:24;4.20;99.90
8892;DHT22;4482;54.332;10.118;2023-01-26T16:17:53;4.20;99.90
8892;DHT22;4482;54.332;10.118;2023-01-26T16:20:20;4.20;99.90
8892;DHT22;4482;54.332;10.118;2023-01-26T16:22:47;4.20;99.90
8892;DHT22;4482;54.332;10.118;2023-01-26T16:25:20;4.20;99.90